Portada
METAR-TAF:

METAR-TAF

Aeroports :

Torí, Itàlia

latitud: 45-13N, longitud: 007-39E, altitud: 301 m

Observació

L'informe es va fer fa 44 minuts, a les 10:20 UTC
Vent 3 kt del Sud/Sud-Oest, variant entre Sud/Sud-Est i Oest/Sud-Oest
Temperatura 10°C
Humitat 40%
Pressió 1023 hPa
Visibilitat 10 km o més
sense núvols per sota de 1500 mi sense presència de cumulonimbus.

METAR: LIMF 211020Z 20003KT 160V240 CAVOK 10/M03 Q1023

Hora: 12:04 (11:04 UTC)

Pronòstic

L'informe es va fer fa 6 hores i 4 minuts, a les 05:00 UTC
Pronòstic vàlid del 21 a les 06 UTC al 22 a les 06 UTC
Vent 5 kt amb direcció variable
Visibilitat 10 km o més
sense núvols per sota de 1500 mi sense presència de cumulonimbus.
Temporalment
l' 21 a les 18 UTC al 22 a les 08 UTC
Visibilitat: 2000 m
boirina

TAF: LIMF 210500Z 2106/2206 VRB05KT CAVOK TEMPO 2118/2208 2000 BR

Observacions i pronòstics meteorològics de més de 4000 aeroports (METAR i TAF).

Les estacions disponibles són els punts grocs i vermells al mapa.

Posi el ratolí al punt desitjat per veure el nom de l'estació.

Feu clic per veure les observacions i els pronòstics meteorològics.

Per canviar el mapa: feu clic els botons verds amb una creu de color negre per apropar; al botó verd amb un guió per allunyar la imatge; o en les fletxes verdes per a mapes adjacents.


METAR-TAF: